KTVC/TVC METAR and TAF weather

Enter ICAO airport designator
Station Type Date Time Source
KTVC METAR 2022/08/13 11:53 UTC NOAA

KTVC 131153Z 23004KT 10SM -RA BKN038 OVC050 16/11 A3015 RMK AO2 RAB37 SLP210 P0000 60001 70001 T01610106 10183 20161 51006


Station Type Date Time Source
KTVC Decoded METAR 2022/08/13 11:53 UTC NOAA

CHERRY CAPITAL AIRPORT, MI, United States (KTVC) 44-44N 085-34W 190M
Aug 13, 2022 - 07:53 AM EDT / 2022.08.13 1153 UTC
Wind: from the SW (230 degrees) at 5 MPH (4 KT):0
Visibility: 10 mile(s):0
Sky conditions: overcast
Weather: light rain
Precipitation last hour: A trace
Temperature: 61.0 F (16.1 C)
Dew Point: 51.1 F (10.6 C)
Relative Humidity: 69%
Pressure (altimeter): 30.15 in. Hg (1020 hPa)
Pressure tendency: 0.02 inches (0.6 hPa) higher than three hours ago
ob: KTVC 131153Z 23004KT 10SM -RA BKN038 OVC050 16/11 A3015 RMK AO2 RAB37 SLP210 P0000 60001 70001 T01610106 10183 20161 51006
cycle: 12

Station Type Date Time Source
KTVC TAF 2022/08/13 12:36 UTC NOAA

TAF KTVC 131134Z 1312/1412 VRB03KT 6SM -SHRA BR OVC060
FM131400 17005KT 6SM -SHRA BR OVC045
FM131600 16006KT 6SM -SHRA BR OVC030
FM131800 16007KT 5SM SHRA BR OVC019
FM140200 13006KT P6SM VCSH OVC027
FM140600 VRB04KT P6SM OVC019

Example: see airport list